createdAt,value
2023-01-19T00:01:36.627Z,-0.87
2023-01-19T00:04:04.868Z,-0.87
2023-01-19T00:06:32.687Z,-0.90
2023-01-19T00:09:00.692Z,-1.06
2023-01-19T00:11:28.352Z,-1.03
2023-01-19T00:13:56.047Z,-0.98
2023-01-19T00:16:25.215Z,-1.07
2023-01-19T00:18:53.790Z,-1.14
2023-01-19T00:21:22.589Z,-1.17
2023-01-19T00:23:52.540Z,-1.23
2023-01-19T00:26:22.315Z,-1.29
2023-01-19T00:28:50.967Z,-1.39
2023-01-19T00:31:20.646Z,-1.46
2023-01-19T00:33:52.639Z,-1.62
2023-01-19T00:36:21.013Z,-1.62
2023-01-19T00:38:48.717Z,-1.64
2023-01-19T00:41:16.572Z,-1.62
2023-01-19T00:43:43.631Z,-1.69
2023-01-19T00:46:12.066Z,-1.82
2023-01-19T00:48:39.880Z,-1.85
2023-01-19T00:51:09.331Z,-1.88
2023-01-19T00:53:37.046Z,-1.81
2023-01-19T00:56:04.929Z,-1.56
2023-01-19T00:58:32.715Z,-1.47
2023-01-19T01:01:03.684Z,-1.43
2023-01-19T01:03:31.746Z,-1.43
2023-01-19T01:05:59.655Z,-1.40
2023-01-19T01:08:29.095Z,-1.40
2023-01-19T01:10:57.496Z,-1.45
2023-01-19T01:13:27.951Z,-1.39
2023-01-19T01:15:57.282Z,-1.38
2023-01-19T01:18:25.699Z,-1.44
2023-01-19T01:20:55.317Z,-1.46
2023-01-19T01:23:24.185Z,-1.52
2023-01-19T01:25:53.292Z,-1.52
2023-01-19T01:28:21.061Z,-1.39
2023-01-19T01:30:48.949Z,-1.37
2023-01-19T01:33:40.925Z,-1.35
2023-01-19T01:36:05.728Z,-1.45
2023-01-19T01:38:33.736Z,-1.58
2023-01-19T01:41:03.455Z,-1.65
2023-01-19T01:43:44.993Z,-1.74
2023-01-19T01:46:15.477Z,-1.77
2023-01-19T01:48:47.415Z,-1.77
2023-01-19T01:51:25.815Z,-1.75
2023-01-19T01:54:02.533Z,-1.71
2023-01-19T01:56:36.778Z,-1.61
2023-01-19T01:59:08.643Z,-1.54
2023-01-19T02:01:55.134Z,-1.46
2023-01-19T02:04:24.334Z,-1.35
2023-01-19T02:07:09.620Z,-1.33
2023-01-19T02:09:56.014Z,-1.26
2023-01-19T02:12:43.896Z,-1.28
2023-01-19T02:15:17.014Z,-1.24
2023-01-19T02:17:45.015Z,-1.29
2023-01-19T02:20:14.226Z,-1.36
2023-01-19T02:22:48.730Z,-1.37
2023-01-19T02:25:19.927Z,-1.40
2023-01-19T02:27:48.955Z,-1.39
2023-01-19T02:30:18.556Z,-1.45
2023-01-19T02:32:46.597Z,-1.57
2023-01-19T02:35:14.551Z,-1.68
2023-01-19T02:37:44.814Z,-1.75
2023-01-19T02:40:15.925Z,-1.85
2023-01-19T02:42:49.494Z,-1.88
2023-01-19T02:45:23.388Z,-1.95
2023-01-19T02:47:53.253Z,-1.98
2023-01-19T02:50:49.370Z,-2.03
2023-01-19T02:53:39.226Z,-1.86
2023-01-19T02:56:35.944Z,-1.66
2023-01-19T02:59:10.060Z,-1.48
2023-01-19T03:01:48.592Z,-1.38
2023-01-19T03:04:25.489Z,-1.28
2023-01-19T03:06:57.733Z,-1.23
2023-01-19T03:09:33.630Z,-1.19
2023-01-19T03:12:10.599Z,-1.16
2023-01-19T03:14:44.354Z,-1.05
2023-01-19T03:17:16.021Z,-0.95
2023-01-19T03:19:46.239Z,-0.90
2023-01-19T03:22:22.596Z,-0.89
2023-01-19T03:24:53.679Z,-0.88
2023-01-19T03:27:26.468Z,-0.87
2023-01-19T03:30:00.754Z,-0.86
2023-01-19T03:32:32.937Z,-0.90
2023-01-19T03:35:03.779Z,-0.94
2023-01-19T03:37:32.850Z,-1.00
2023-01-19T03:40:01.173Z,-1.02
2023-01-19T03:42:29.735Z,-0.91
2023-01-19T03:45:02.126Z,-0.59
2023-01-19T03:47:30.305Z,-0.52
2023-01-19T03:49:59.336Z,-0.39
2023-01-19T03:52:32.553Z,-0.26
2023-01-19T03:55:00.874Z,-0.30
2023-01-19T03:57:28.643Z,-0.32
2023-01-19T03:59:57.795Z,-0.27
2023-01-19T04:02:25.920Z,0.03
2023-01-19T04:04:53.654Z,-0.13
2023-01-19T04:07:21.471Z,-0.18
2023-01-19T04:09:49.093Z,-0.18
2023-01-19T04:12:16.778Z,-0.24
2023-01-19T04:14:44.565Z,-0.20
2023-01-19T04:17:14.326Z,-0.09
2023-01-19T04:19:43.128Z,-0.06
2023-01-19T04:22:11.270Z,0.05
2023-01-19T04:24:39.062Z,-0.03
2023-01-19T04:27:06.923Z,0.03
2023-01-19T04:29:34.720Z,-0.14
2023-01-19T04:32:02.553Z,-0.19
2023-01-19T04:34:31.619Z,-0.12
2023-01-19T04:36:59.366Z,-0.24
2023-01-19T04:39:27.504Z,-0.32
2023-01-19T04:41:57.322Z,-0.15
2023-01-19T04:44:25.238Z,-0.17
2023-01-19T04:46:52.969Z,-0.12
2023-01-19T04:49:20.843Z,-0.19
2023-01-19T04:51:49.834Z,-0.17
2023-01-19T04:54:17.529Z,-0.04
2023-01-19T04:56:45.438Z,-0.33
2023-01-19T04:59:13.735Z,-0.44
2023-01-19T05:01:41.461Z,-0.27
2023-01-19T05:04:09.831Z,-0.38
2023-01-19T05:06:37.520Z,-0.59
2023-01-19T05:09:09.167Z,-0.72
2023-01-19T05:11:37.141Z,-0.56
2023-01-19T05:14:04.931Z,-0.37
2023-01-19T05:16:32.628Z,-0.58
2023-01-19T05:19:00.266Z,-0.54
2023-01-19T05:21:28.218Z,-0.64
2023-01-19T05:23:55.894Z,-0.85
2023-01-19T05:26:24.909Z,-0.82
2023-01-19T05:28:52.740Z,-0.92
2023-01-19T05:31:20.538Z,-0.96
2023-01-19T05:33:49.039Z,-0.92
2023-01-19T05:36:17.000Z,-0.96
2023-01-19T05:38:44.761Z,-0.84
2023-01-19T05:41:12.472Z,-0.91
2023-01-19T05:43:41.532Z,-0.80
2023-01-19T05:46:09.771Z,-0.72
2023-01-19T05:48:37.611Z,-0.73
2023-01-19T05:51:06.003Z,-0.64
2023-01-19T05:53:33.933Z,-0.73
2023-01-19T05:56:02.500Z,-0.84
2023-01-19T05:58:30.291Z,-0.90
2023-01-19T06:01:05.134Z,-0.73
2023-01-19T06:03:33.307Z,-0.73
2023-01-19T06:06:01.796Z,-0.63
2023-01-19T06:08:29.743Z,-0.59
2023-01-19T06:10:57.493Z,-0.50
2023-01-19T06:13:25.397Z,-0.59
2023-01-19T06:15:59.750Z,-0.60
2023-01-19T06:18:27.606Z,-0.57
2023-01-19T06:20:58.668Z,-0.54
2023-01-19T06:23:26.621Z,-0.37
2023-01-19T06:25:54.303Z,-0.39
2023-01-19T06:28:22.409Z,-0.44
2023-01-19T06:30:50.861Z,-0.32
2023-01-19T06:33:20.954Z,-0.31
2023-01-19T06:35:50.528Z,-0.36
2023-01-19T06:38:19.483Z,-0.23
2023-01-19T06:40:47.698Z,-0.34
2023-01-19T06:43:15.510Z,-0.35
2023-01-19T06:45:45.149Z,-0.32
2023-01-19T06:48:13.007Z,-0.33
2023-01-19T06:50:42.078Z,-0.35
2023-01-19T06:53:10.134Z,-0.22
2023-01-19T06:55:39.207Z,-0.30
2023-01-19T06:58:07.879Z,-0.32
2023-01-19T07:00:36.114Z,-0.30
2023-01-19T07:03:05.109Z,-0.30
2023-01-19T07:05:33.243Z,-0.31
2023-01-19T07:08:03.244Z,-0.32
2023-01-19T07:11:21.585Z,-0.33
2023-01-19T07:13:19.048Z,-0.40
2023-01-19T07:15:47.152Z,-0.39
2023-01-19T07:18:15.144Z,-0.42
2023-01-19T07:20:44.316Z,-0.48
2023-01-19T07:23:13.515Z,-0.47
2023-01-19T07:25:41.159Z,-0.42
2023-01-19T07:28:09.733Z,-0.38
2023-01-19T07:30:37.476Z,-0.26
2023-01-19T07:33:05.291Z,-0.23
2023-01-19T07:35:33.089Z,-0.13
2023-01-19T07:38:00.996Z,-0.02
2023-01-19T07:40:30.128Z,-0.05
2023-01-19T07:42:58.062Z,-0.04
2023-01-19T07:45:28.008Z,-0.04
2023-01-19T07:47:58.679Z,-0.01
2023-01-19T07:50:27.844Z,0.05
2023-01-19T07:52:55.899Z,0.12
2023-01-19T07:55:25.125Z,0.12
2023-01-19T07:57:54.439Z,0.12
2023-01-19T08:00:25.399Z,0.12
2023-01-19T08:02:54.030Z,0.10
2023-01-19T08:05:23.093Z,0.20
2023-01-19T08:07:53.241Z,0.22
2023-01-19T08:10:25.666Z,0.26
2023-01-19T08:12:54.708Z,0.24
2023-01-19T08:15:24.953Z,0.23
2023-01-19T08:17:57.122Z,0.25
2023-01-19T08:20:27.206Z,0.26
2023-01-19T08:23:00.007Z,0.35
2023-01-19T08:25:33.078Z,0.36
2023-01-19T08:28:02.496Z,0.30
2023-01-19T08:30:30.423Z,0.27
2023-01-19T08:33:04.231Z,0.31
2023-01-19T08:35:32.253Z,0.41
2023-01-19T08:38:01.590Z,0.74
2023-01-19T08:40:29.750Z,0.83
2023-01-19T08:43:03.752Z,0.79
2023-01-19T08:45:33.594Z,0.74
2023-01-19T08:48:02.153Z,0.89
2023-01-19T08:50:31.800Z,0.91
2023-01-19T08:53:01.148Z,1.12
2023-01-19T08:55:30.577Z,1.31
2023-01-19T08:58:00.072Z,1.21
2023-01-19T09:00:31.772Z,1.29
2023-01-19T09:03:02.396Z,1.14
2023-01-19T09:05:31.977Z,0.86
2023-01-19T09:08:00.077Z,1.03
2023-01-19T09:10:28.256Z,1.08
2023-01-19T09:12:55.906Z,1.24
2023-01-19T09:15:24.112Z,1.24
2023-01-19T09:17:53.525Z,1.17
2023-01-19T09:20:23.484Z,1.16
2023-01-19T09:22:51.282Z,1.34
2023-01-19T09:25:19.238Z,1.39
2023-01-19T09:27:47.052Z,1.32
2023-01-19T09:30:17.043Z,1.42
2023-01-19T09:32:45.424Z,1.45
2023-01-19T09:35:13.584Z,1.59
2023-01-19T09:37:47.148Z,1.66
2023-01-19T09:40:17.329Z,1.74
2023-01-19T09:42:48.333Z,1.83
2023-01-19T09:45:20.432Z,1.79
2023-01-19T09:47:50.302Z,1.92
2023-01-19T09:50:25.294Z,2.03
2023-01-19T09:53:01.309Z,1.92
2023-01-19T09:55:30.605Z,2.04
2023-01-19T09:57:58.768Z,2.01
2023-01-19T10:00:28.940Z,2.31
2023-01-19T10:03:01.164Z,2.45
2023-01-19T10:05:32.838Z,2.45
2023-01-19T10:08:16.927Z,2.71
2023-01-19T10:10:49.567Z,2.83
2023-01-19T10:13:31.775Z,2.87
2023-01-19T10:16:11.117Z,2.67
2023-01-19T10:18:47.479Z,2.61
2023-01-19T10:21:22.786Z,2.64
2023-01-19T10:23:55.165Z,2.65
2023-01-19T10:26:25.392Z,2.63
2023-01-19T10:28:58.481Z,2.49
2023-01-19T10:31:26.718Z,2.58
2023-01-19T10:33:55.174Z,2.58
2023-01-19T10:36:29.054Z,2.55
2023-01-19T10:38:59.329Z,2.72
2023-01-19T10:41:32.373Z,2.83
2023-01-19T10:44:02.283Z,3.02
2023-01-19T10:46:36.191Z,2.97
2023-01-19T10:49:04.777Z,2.99
2023-01-19T10:51:34.750Z,2.82
2023-01-19T10:54:05.550Z,2.77
2023-01-19T10:56:36.547Z,2.65
2023-01-19T10:59:06.905Z,2.68
2023-01-19T11:01:37.955Z,2.71
2023-01-19T11:04:22.844Z,2.87
2023-01-19T11:06:50.835Z,2.91
2023-01-19T11:09:21.943Z,2.91
2023-01-19T11:11:51.833Z,2.96
2023-01-19T11:14:22.013Z,2.90
2023-01-19T11:16:52.966Z,2.84
2023-01-19T11:19:32.909Z,2.83
2023-01-19T11:22:21.566Z,2.77
2023-01-19T11:24:50.906Z,2.85
2023-01-19T11:27:20.753Z,2.84
2023-01-19T11:29:51.201Z,2.73
2023-01-19T11:32:23.061Z,2.80
2023-01-19T11:34:51.236Z,2.78
2023-01-19T11:37:31.333Z,2.86
2023-01-19T11:40:02.875Z,2.91
2023-01-19T11:42:34.676Z,3.00
2023-01-19T11:45:07.940Z,3.00
2023-01-19T11:47:42.281Z,3.22
2023-01-19T11:50:22.177Z,3.05
2023-01-19T11:52:55.349Z,3.11
2023-01-19T11:55:32.211Z,3.09
2023-01-19T11:58:00.927Z,3.02
2023-01-19T12:00:36.724Z,2.95
2023-01-19T12:03:14.201Z,2.87
2023-01-19T12:05:48.083Z,2.95
2023-01-19T12:08:21.770Z,2.95
2023-01-19T12:10:53.800Z,2.99
2023-01-19T12:13:24.005Z,2.99
2023-01-19T12:15:57.772Z,3.04
2023-01-19T12:18:29.302Z,2.99
2023-01-19T12:20:58.686Z,2.98
2023-01-19T12:23:37.468Z,3.01
2023-01-19T12:26:23.366Z,3.14
2023-01-19T12:28:53.399Z,3.09
2023-01-19T12:31:23.587Z,3.12
2023-01-19T12:33:51.778Z,3.17
2023-01-19T12:36:39.390Z,3.22
2023-01-19T12:39:18.042Z,3.19
2023-01-19T12:41:48.143Z,3.23
2023-01-19T12:44:34.861Z,3.38
2023-01-19T12:47:21.049Z,3.34
2023-01-19T12:49:51.995Z,3.36
2023-01-19T12:52:33.357Z,3.39
2023-01-19T12:55:05.810Z,3.40
2023-01-19T12:57:40.277Z,3.32
2023-01-19T13:00:28.839Z,3.25
2023-01-19T13:02:57.724Z,3.36
2023-01-19T13:05:59.083Z,3.39
2023-01-19T13:08:31.190Z,3.40
2023-01-19T13:11:26.380Z,3.35
2023-01-19T13:14:33.718Z,3.26
2023-01-19T13:17:34.739Z,3.28
2023-01-19T13:20:25.878Z,3.26
2023-01-19T13:23:19.255Z,3.33
2023-01-19T13:25:53.839Z,3.26
2023-01-19T13:28:29.294Z,3.24
2023-01-19T13:31:00.338Z,3.47
2023-01-19T13:33:37.649Z,3.32
2023-01-19T13:36:20.590Z,3.25
2023-01-19T13:38:50.198Z,3.31
2023-01-19T13:41:22.650Z,3.32
2023-01-19T13:43:56.152Z,3.42
2023-01-19T13:46:26.326Z,3.34
2023-01-19T13:48:58.766Z,3.36
2023-01-19T13:51:27.035Z,3.49
2023-01-19T13:53:56.416Z,3.48
2023-01-19T13:56:27.707Z,3.47
2023-01-19T13:59:13.805Z,3.45
2023-01-19T14:01:44.514Z,3.41
2023-01-19T14:04:32.459Z,3.48
2023-01-19T14:07:03.504Z,3.53
2023-01-19T14:09:31.479Z,3.53
2023-01-19T14:12:09.033Z,3.47
2023-01-19T14:14:36.831Z,3.58
2023-01-19T14:17:04.812Z,3.59
2023-01-19T14:19:52.745Z,3.65
2023-01-19T14:22:43.578Z,3.61
2023-01-19T14:25:28.676Z,3.39
2023-01-19T14:28:30.171Z,3.35
2023-01-19T14:31:00.285Z,3.29
2023-01-19T14:33:41.982Z,3.38
2023-01-19T14:36:27.672Z,3.43
2023-01-19T14:38:59.037Z,3.38
2023-01-19T14:41:38.118Z,3.37
2023-01-19T14:44:10.556Z,3.36
2023-01-19T14:46:39.294Z,3.35
2023-01-19T14:49:08.019Z,3.33
2023-01-19T14:51:37.232Z,3.31
2023-01-19T14:54:05.631Z,3.33
2023-01-19T14:56:33.990Z,3.25
2023-01-19T14:59:02.909Z,3.35
2023-01-19T15:01:31.378Z,3.25
2023-01-19T15:03:59.593Z,3.36
2023-01-19T15:06:27.690Z,3.15
2023-01-19T15:08:57.147Z,3.16
2023-01-19T15:11:28.429Z,3.10
2023-01-19T15:13:56.758Z,3.08
2023-01-19T15:16:26.165Z,3.40
2023-01-19T15:18:54.538Z,3.37
2023-01-19T15:21:26.423Z,3.09
2023-01-19T15:23:54.916Z,3.00
2023-01-19T15:26:27.639Z,3.04
2023-01-19T15:28:57.398Z,2.96
2023-01-19T15:31:27.615Z,2.75
2023-01-19T15:33:55.848Z,2.70
2023-01-19T15:36:25.456Z,2.65
2023-01-19T15:38:53.341Z,2.59
2023-01-19T15:41:26.894Z,2.70
2023-01-19T15:43:54.924Z,2.57
2023-01-19T15:46:25.189Z,2.48
2023-01-19T15:48:54.068Z,2.39
2023-01-19T15:51:25.072Z,2.34
2023-01-19T15:53:53.819Z,2.30
2023-01-19T15:56:25.948Z,2.30
2023-01-19T15:58:54.831Z,2.29
2023-01-19T16:01:24.296Z,2.29
2023-01-19T16:03:52.660Z,2.31
2023-01-19T16:06:20.382Z,2.34
2023-01-19T16:08:48.680Z,2.25
2023-01-19T16:11:18.511Z,2.26
2023-01-19T16:13:48.695Z,2.24
2023-01-19T16:16:18.334Z,2.21
2023-01-19T16:18:46.919Z,2.24
2023-01-19T16:21:14.928Z,2.24
2023-01-19T16:23:42.901Z,2.19
2023-01-19T16:26:25.775Z,2.17
2023-01-19T16:28:57.054Z,2.18
2023-01-19T16:31:24.978Z,2.19
2023-01-19T16:33:53.008Z,2.18
2023-01-19T16:36:23.821Z,2.16
2023-01-19T16:38:52.042Z,2.17
2023-01-19T16:41:20.535Z,2.15
2023-01-19T16:43:52.933Z,2.17
2023-01-19T16:46:24.423Z,2.14
2023-01-19T16:48:52.962Z,2.07
2023-01-19T16:51:22.119Z,2.05
2023-01-19T16:53:50.924Z,2.08
2023-01-19T16:56:18.801Z,2.13
2023-01-19T16:58:46.782Z,2.18
2023-01-19T17:01:19.789Z,2.12
2023-01-19T17:03:49.585Z,2.09
2023-01-19T17:06:20.081Z,2.03
2023-01-19T17:08:48.539Z,2.01
2023-01-19T17:11:20.615Z,2.00
2023-01-19T17:13:50.226Z,2.01
2023-01-19T17:16:17.959Z,2.02
2023-01-19T17:18:46.081Z,2.03
2023-01-19T17:21:17.771Z,2.05
2023-01-19T17:23:47.318Z,2.13
2023-01-19T17:26:15.504Z,2.17
2023-01-19T17:28:43.632Z,2.17
2023-01-19T17:31:13.529Z,2.15
2023-01-19T17:33:41.659Z,2.19
2023-01-19T17:36:12.374Z,2.15
2023-01-19T17:38:42.017Z,2.13
2023-01-19T17:41:14.748Z,2.08
2023-01-19T17:43:42.599Z,2.10
2023-01-19T17:46:10.528Z,2.13
2023-01-19T17:48:38.816Z,2.18
2023-01-19T17:51:09.176Z,2.19
2023-01-19T17:53:38.497Z,2.20
2023-01-19T17:56:10.271Z,2.25
2023-01-19T17:58:38.099Z,2.24
2023-01-19T18:01:10.567Z,2.21
2023-01-19T18:03:38.460Z,2.22
2023-01-19T18:06:07.154Z,2.21
2023-01-19T18:08:36.303Z,2.23
2023-01-19T18:11:04.429Z,2.22
2023-01-19T18:13:34.277Z,2.20
2023-01-19T18:16:03.657Z,2.19
2023-01-19T18:18:32.076Z,2.17
2023-01-19T18:21:00.824Z,2.15
2023-01-19T18:23:29.384Z,2.14
2023-01-19T18:26:00.887Z,2.13
2023-01-19T18:28:29.220Z,2.12
2023-01-19T18:30:58.586Z,2.13
2023-01-19T18:33:27.451Z,2.11
2023-01-19T18:35:55.661Z,2.06
2023-01-19T18:38:23.878Z,2.02
2023-01-19T18:41:01.311Z,1.92
2023-01-19T18:43:29.342Z,1.80
2023-01-19T18:45:58.481Z,1.84
2023-01-19T18:48:26.450Z,1.81
2023-01-19T18:50:54.757Z,1.81
2023-01-19T18:53:22.835Z,1.84
2023-01-19T18:55:52.247Z,1.86
2023-01-19T18:58:20.215Z,1.92
2023-01-19T19:00:48.705Z,1.97
2023-01-19T19:03:18.666Z,1.99
2023-01-19T19:05:46.445Z,2.00
2023-01-19T19:08:14.306Z,1.98
2023-01-19T19:10:43.351Z,2.02
2023-01-19T19:13:14.485Z,2.04
2023-01-19T19:15:44.155Z,2.02
2023-01-19T19:18:14.053Z,1.95
2023-01-19T19:20:43.625Z,1.87
2023-01-19T19:23:12.443Z,1.79
2023-01-19T19:25:41.277Z,1.69
2023-01-19T19:28:09.923Z,1.63
2023-01-19T19:30:38.900Z,1.69
2023-01-19T19:33:08.081Z,1.64
2023-01-19T19:35:35.873Z,1.68
2023-01-19T19:38:05.386Z,1.72
2023-01-19T19:40:33.316Z,1.71
2023-01-19T19:43:01.048Z,1.74
2023-01-19T19:45:28.803Z,1.76
2023-01-19T19:47:57.592Z,1.71
2023-01-19T19:50:25.606Z,1.68
2023-01-19T19:52:53.451Z,1.63
2023-01-19T19:55:22.585Z,1.60
2023-01-19T19:57:50.286Z,1.61
2023-01-19T20:00:18.911Z,1.65
2023-01-19T20:02:46.798Z,1.69
2023-01-19T20:05:14.462Z,1.71
2023-01-19T20:07:47.000Z,1.70
2023-01-19T20:10:15.130Z,1.73
2023-01-19T20:12:44.284Z,1.75
2023-01-19T20:15:12.712Z,1.78
2023-01-19T20:17:40.379Z,1.79
2023-01-19T20:20:10.231Z,1.81
2023-01-19T20:22:38.408Z,1.81
2023-01-19T20:25:07.614Z,1.80
2023-01-19T20:27:35.825Z,1.75
2023-01-19T20:30:07.863Z,1.64
2023-01-19T20:32:36.277Z,1.50
2023-01-19T20:35:06.145Z,1.42
2023-01-19T20:37:34.673Z,1.36
2023-01-19T20:40:02.719Z,1.36
2023-01-19T20:42:30.551Z,1.46
2023-01-19T20:44:58.344Z,1.48
2023-01-19T20:47:27.462Z,1.52
2023-01-19T20:49:55.135Z,1.54
2023-01-19T20:52:23.455Z,1.53
2023-01-19T20:54:52.233Z,1.51
2023-01-19T20:57:20.032Z,1.36
2023-01-19T20:59:47.967Z,1.33
2023-01-19T21:02:16.680Z,1.32
2023-01-19T21:04:45.794Z,1.26
2023-01-19T21:07:13.598Z,1.21
2023-01-19T21:09:41.446Z,1.19
2023-01-19T21:12:09.707Z,1.16
2023-01-19T21:14:38.327Z,1.19
2023-01-19T21:17:06.022Z,1.19
2023-01-19T21:19:34.231Z,1.19
2023-01-19T21:22:04.099Z,1.18
2023-01-19T21:24:31.953Z,1.21
2023-01-19T21:26:59.870Z,1.26
2023-01-19T21:29:28.223Z,1.27
2023-01-19T21:31:56.781Z,1.29
2023-01-19T21:34:24.486Z,1.24
2023-01-19T21:36:52.254Z,1.20
2023-01-19T21:39:21.543Z,1.18
2023-01-19T21:41:49.352Z,1.10
2023-01-19T21:44:17.054Z,1.07
2023-01-19T21:46:44.828Z,1.01
2023-01-19T21:49:17.964Z,0.96
2023-01-19T21:51:47.898Z,0.84
2023-01-19T21:54:16.936Z,0.73
2023-01-19T21:56:46.171Z,0.61
2023-01-19T21:59:15.686Z,0.52
2023-01-19T22:01:45.536Z,0.44
2023-01-19T22:04:13.615Z,0.43
2023-01-19T22:06:41.390Z,0.43
2023-01-19T22:09:09.860Z,0.44
2023-01-19T22:11:37.565Z,0.47
2023-01-19T22:14:07.239Z,0.43
2023-01-19T22:16:35.400Z,0.37
2023-01-19T22:19:03.787Z,0.36
2023-01-19T22:21:34.088Z,0.37
2023-01-19T22:24:03.159Z,0.39
2023-01-19T22:26:32.206Z,0.41
2023-01-19T22:29:01.663Z,0.43
2023-01-19T22:31:31.610Z,0.43
2023-01-19T22:33:59.630Z,0.45
2023-01-19T22:36:29.545Z,0.42
2023-01-19T22:38:58.524Z,0.41
2023-01-19T22:41:30.416Z,0.37
2023-01-19T22:44:00.670Z,0.31
2023-01-19T22:46:32.005Z,0.27
2023-01-19T22:49:00.318Z,0.25
2023-01-19T22:51:29.518Z,0.21
2023-01-19T22:53:57.404Z,0.23
2023-01-19T22:56:27.426Z,0.18
2023-01-19T22:58:55.667Z,0.18
2023-01-19T23:01:24.898Z,0.17
2023-01-19T23:03:55.012Z,0.17
2023-01-19T23:06:24.651Z,0.19
2023-01-19T23:08:53.302Z,0.17
2023-01-19T23:11:22.986Z,0.17
2023-01-19T23:13:51.772Z,0.10
2023-01-19T23:16:19.715Z,0.05
2023-01-19T23:18:48.311Z,0.02
2023-01-19T23:21:19.327Z,-0.03
2023-01-19T23:23:47.408Z,-0.08
2023-01-19T23:26:17.133Z,-0.10
2023-01-19T23:28:45.732Z,-0.12
2023-01-19T23:31:15.258Z,-0.13
2023-01-19T23:33:44.158Z,-0.18
2023-01-19T23:36:12.512Z,-0.34
2023-01-19T23:38:42.335Z,-0.36
2023-01-19T23:41:10.638Z,-0.37
2023-01-19T23:43:38.393Z,-0.50
2023-01-19T23:46:07.892Z,-0.57
2023-01-19T23:48:37.268Z,-0.58
2023-01-19T23:51:08.143Z,-0.62
2023-01-19T23:53:36.270Z,-0.60
2023-01-19T23:56:11.847Z,-0.54
2023-01-19T23:58:40.590Z,-0.55
